Time;durP1;ratioP1;P1;durP2;ratioP2;P2;SDS_P1;SDS_P2;PMS_P1;PMS_P2;Temp;Humidity;BMP_temperature;BMP_pressure;BME280_temperature;BME280_humidity;BME280_pressure;Samples;Min_cycle;Max_cycle;Signal;HPM_P1;HPM_P2
2023/01/04 00:01:25;;;;;;;9.73;5.87;;;5.80;99.90;;;8.83;53.78;98819.84;5044641;28;20049;-51
2023/01/04 00:03:53;;;;;;;9.03;6.30;;;5.70;99.90;;;8.82;53.68;98818.16;5043383;28;20052;-47
2023/01/04 00:06:21;;;;;;;9.80;6.63;;;5.60;99.90;;;8.81;53.65;98807.66;5044665;28;20048;-49
2023/01/04 00:08:49;;;;;;;9.20;6.23;;;5.70;99.90;;;8.76;53.67;98808.03;5044788;28;20225;-48
2023/01/04 00:11:20;;;;;;;9.43;5.73;;;5.60;99.90;;;8.76;53.73;98808.03;5043535;28;20045;-50
2023/01/04 00:13:51;;;;;;;8.20;6.27;;;5.60;99.90;;;8.76;53.73;98800.06;5037089;28;20304;-51
2023/01/04 00:16:23;;;;;;;7.43;5.80;;;5.60;99.90;;;8.78;53.50;98797.25;5042735;28;20352;-49
2023/01/04 00:18:53;;;;;;;7.27;5.73;;;5.60;99.90;;;8.75;53.43;98793.06;5037068;28;20051;-49
2023/01/04 00:21:27;;;;;;;7.63;5.97;;;5.60;99.90;;;8.72;53.58;98793.28;5044408;28;20051;-51
2023/01/04 00:23:58;;;;;;;8.47;6.00;;;5.50;99.90;;;8.70;53.68;98786.41;5044003;28;20042;-50
2023/01/04 00:26:30;;;;;;;7.17;4.73;;;5.50;99.90;;;8.70;53.44;98779.28;5044329;28;20243;-51
2023/01/04 00:29:12;;;;;;;8.00;5.23;;;5.50;99.90;;;8.67;53.44;98783.03;5043095;28;20053;-48
2023/01/04 00:31:40;;;;;;;8.27;5.83;;;5.50;99.90;;;8.67;53.14;98776.91;5043964;28;20271;-48
2023/01/04 00:34:12;;;;;;;7.33;5.57;;;5.50;99.90;;;8.62;53.28;98779.06;5043877;28;20052;-51
2023/01/04 00:36:40;;;;;;;6.43;4.97;;;5.40;99.90;;;8.59;53.36;98769.53;5042902;28;20053;-48
2023/01/04 00:39:15;;;;;;;8.57;5.90;;;5.40;99.90;;;8.59;53.46;98761.56;5043848;28;20049;-49
2023/01/04 00:41:52;;;;;;;6.70;5.33;;;5.40;99.90;;;8.53;53.40;98756.75;5043631;28;20061;-49
2023/01/04 00:44:30;;;;;;;7.50;5.40;;;5.30;99.90;;;8.50;53.30;98756.97;5043512;28;20066;-50
2023/01/04 00:47:00;;;;;;;5.90;4.73;;;5.40;99.90;;;8.48;53.48;98748.28;5042358;28;20045;-48
2023/01/04 00:49:28;;;;;;;6.50;4.60;;;5.30;99.90;;;8.48;53.72;98745.66;5043317;28;20047;-53
2023/01/04 00:51:57;;;;;;;7.60;4.97;;;5.30;99.90;;;8.42;53.72;98741.66;5042653;28;20048;-48
2023/01/04 00:54:26;;;;;;;6.23;4.27;;;5.30;99.90;;;8.42;54.04;98746.97;5042432;28;20045;-48
2023/01/04 00:56:53;;;;;;;7.17;4.23;;;5.30;99.90;;;8.40;54.12;98740.06;5042861;28;20055;-48
2023/01/04 00:59:22;;;;;;;7.00;5.00;;;5.30;99.90;;;8.42;53.93;98751.44;5043679;28;20049;-49
2023/01/04 01:01:50;;;;;;;6.93;3.93;;;5.30;99.90;;;8.37;54.17;98738.47;5043625;28;20251;-48
2023/01/04 01:04:22;;;;;;;5.87;4.47;;;5.30;99.90;;;8.41;54.29;98742.66;5042342;28;20239;-50
2023/01/04 01:06:51;;;;;;;6.17;3.83;;;5.30;99.90;;;8.42;54.13;98739.00;5036057;28;20053;-51
2023/01/04 01:09:21;;;;;;;7.13;4.60;;;5.40;99.90;;;8.44;54.26;98750.34;5043640;28;20045;-52
2023/01/04 01:11:53;;;;;;;6.20;4.03;;;5.40;99.90;;;8.45;54.29;98753.84;5034867;28;20256;-49
2023/01/04 01:14:24;;;;;;;6.23;4.50;;;5.40;99.90;;;8.42;54.37;98754.94;5041981;28;20053;-50
2023/01/04 01:16:53;;;;;;;6.73;4.20;;;5.40;99.90;;;8.40;54.25;98745.38;5039932;28;20049;-49
2023/01/04 01:19:27;;;;;;;5.57;3.77;;;5.40;99.90;;;8.42;54.18;98752.28;5043384;28;20041;-53
2023/01/04 01:21:56;;;;;;;6.47;4.00;;;5.40;99.90;;;8.38;54.19;98756.09;5043373;28;20056;-49
2023/01/04 01:24:25;;;;;;;5.30;3.93;;;5.30;99.90;;;8.36;54.16;98750.06;5042753;28;20259;-49
2023/01/04 01:26:53;;;;;;;5.03;3.70;;;5.30;99.90;;;8.38;54.31;98761.41;5042675;28;20054;-50
2023/01/04 01:29:22;;;;;;;6.53;4.27;;;5.30;99.90;;;8.38;54.08;98757.94;5042725;28;20049;-48
2023/01/04 01:31:50;;;;;;;4.70;3.80;;;5.30;99.90;;;8.36;54.38;98755.38;5035051;28;20045;-48
2023/01/04 01:34:18;;;;;;;4.60;3.27;;;5.30;99.90;;;8.32;54.54;98756.59;5042678;28;20064;-48
2023/01/04 01:36:45;;;;;;;5.07;3.60;;;5.20;99.90;;;8.32;54.41;98763.69;5042810;28;20047;-48
2023/01/04 01:39:13;;;;;;;4.07;3.57;;;5.30;99.90;;;8.33;54.26;98754.78;5041976;28;20053;-49
2023/01/04 01:41:41;;;;;;;5.33;3.77;;;5.20;99.90;;;8.29;54.50;98752.34;5042763;28;20056;-49
2023/01/04 01:44:12;;;;;;;5.90;4.47;;;5.20;99.90;;;8.30;54.41;98755.88;5042649;28;20071;-51
2023/01/04 01:46:44;;;;;;;6.03;4.23;;;5.20;99.90;;;8.26;54.36;98755.25;5042752;28;20049;-51
2023/01/04 01:49:36;;;;;;;5.27;3.77;;;5.20;99.90;;;8.26;54.48;98749.94;5041744;28;20041;-49
2023/01/04 01:52:13;;;;;;;5.37;4.20;;;5.20;99.90;;;8.26;54.55;98759.72;5036749;28;20045;-48
2023/01/04 01:54:50;;;;;;;4.73;3.60;;;5.20;99.90;;;8.28;54.29;98757.81;5041351;28;20042;-48
2023/01/04 01:57:24;;;;;;;6.47;4.53;;;5.20;99.90;;;8.32;54.31;98758.38;5040939;28;20049;-50
2023/01/04 01:59:55;;;;;;;5.28;3.67;;;5.20;99.90;;;8.31;54.35;98762.00;5035440;28;20057;-53
2023/01/04 02:02:23;;;;;;;5.20;3.90;;;5.20;99.90;;;8.29;54.24;98762.13;5041318;28;20374;-54
2023/01/04 02:04:54;;;;;;;5.70;4.20;;;5.10;99.90;;;8.26;54.25;98760.56;5035115;28;20239;-49
2023/01/04 02:07:27;;;;;;;6.17;3.97;;;5.10;99.90;;;8.22;54.04;98760.91;5041824;28;20045;-53
2023/01/04 02:09:56;;;;;;;5.70;4.10;;;5.00;99.90;;;8.19;54.35;98756.69;5041580;28;20271;-50
2023/01/04 02:12:24;;;;;;;6.33;3.97;;;5.00;99.90;;;8.16;54.35;98748.97;5042480;28;20045;-49
2023/01/04 02:14:52;;;;;;;6.73;4.63;;;5.00;99.90;;;8.13;53.94;98749.22;5033519;28;20041;-53
2023/01/04 02:17:53;;;;;;;7.73;4.37;;;4.90;99.90;;;8.05;54.21;98747.16;5042717;28;20053;-49
2023/01/04 02:20:38;;;;;;;6.87;4.03;;;4.80;99.90;;;7.98;53.86;98737.97;5041464;28;20045;-50
2023/01/04 02:23:30;;;;;;;6.93;4.43;;;4.80;99.90;;;7.93;54.03;98729.53;5035494;28;20049;-54
2023/01/04 02:26:16;;;;;;;5.60;3.83;;;4.70;99.90;;;7.90;54.10;98727.13;5035355;28;20072;-52
2023/01/04 02:29:23;;;;;;;5.40;3.60;;;4.70;99.90;;;7.85;54.42;98726.59;5042170;28;20244;-49
2023/01/04 02:32:19;;;;;;;8.17;4.10;;;4.70;99.90;;;7.88;54.19;98726.38;5042109;28;20056;-53
2023/01/04 02:35:13;;;;;;;6.07;3.80;;;4.80;99.90;;;7.86;54.60;98718.53;5040873;28;20042;-51
2023/01/04 02:37:52;;;;;;;5.47;3.53;;;4.80;99.90;;;7.88;54.62;98715.78;5041073;28;20271;-51
2023/01/04 02:40:55;;;;;;;5.40;3.53;;;4.80;99.90;;;7.82;55.14;98711.78;5041722;28;20057;-53
2023/01/04 02:46:38;;;;;;;4.30;3.00;;;4.80;99.90;;;7.89;54.65;98707.72;5040812;28;20042;-50
2023/01/04 02:51:53;;;;;;;3.60;2.83;;;4.80;99.90;;;7.95;54.40;98702.88;5033845;28;20041;-51
2023/01/04 02:54:28;;;;;;;5.47;3.47;;;4.80;99.90;;;7.95;54.08;98697.56;5042358;28;20052;-49
2023/01/04 02:57:25;;;;;;;4.83;3.37;;;4.80;99.90;;;7.92;54.25;98690.72;5033345;28;20052;-50
2023/01/04 03:00:14;;;;;;;5.00;3.37;;;4.80;99.90;;;7.90;54.45;98682.03;5040839;28;20041;-52
2023/01/04 03:06:23;;;;;;;4.37;2.93;;;4.80;99.90;;;7.96;54.04;98676.25;5035764;28;20056;-51
2023/01/04 03:09:07;;;;;;;5.13;3.30;;;4.80;99.90;;;7.93;53.86;98673.88;5040526;28;20045;-52
2023/01/04 03:14:49;;;;;;;5.67;3.10;;;4.70;99.90;;;7.91;54.24;98662.53;5039758;28;20051;-51
2023/01/04 03:17:23;;;;;;;4.47;2.97;;;4.80;99.90;;;7.94;53.89;98664.91;5040528;28;20045;-51
2023/01/04 03:19:54;;;;;;;5.68;3.28;;;4.80;99.90;;;7.96;54.02;98670.94;5040642;28;20360;-48
2023/01/04 03:50:09;;;;;;;3.00;1.77;;;5.50;99.90;;;8.49;54.27;98662.38;5038595;28;20037;-47
2023/01/04 03:52:40;;;;;;;2.67;1.60;;;5.60;99.90;;;8.62;53.75;98660.44;5043477;28;20328;-48
2023/01/04 03:55:10;;;;;;;3.03;1.80;;;5.60;99.90;;;8.66;53.93;98653.91;5044376;28;20049;-50
2023/01/04 03:57:40;;;;;;;2.93;1.73;;;5.70;99.90;;;8.74;53.74;98645.31;5043489;28;20045;-49
2023/01/04 04:00:16;;;;;;;2.93;1.60;;;5.80;99.90;;;8.78;53.89;98649.44;5043676;28;20041;-50
2023/01/04 04:02:47;;;;;;;2.13;1.80;;;5.80;99.90;;;8.87;53.90;98648.66;5044430;28;20049;-49
2023/01/04 04:08:30;;;;;;;2.87;1.77;;;5.90;99.90;;;9.03;53.50;98636.78;5038327;28;20041;-49
2023/01/04 04:13:49;;;;;;;1.93;1.63;;;6.00;99.90;;;9.05;53.20;98635.69;5041799;28;20049;-47
2023/01/04 04:16:17;;;;;;;2.40;1.70;;;6.00;99.90;;;9.06;53.34;98648.00;5044653;28;20053;-48
2023/01/04 04:18:46;;;;;;;2.17;1.60;;;6.00;99.50;;;9.09;53.07;98638.09;5044835;28;20264;-50
2023/01/04 04:21:14;;;;;;;2.37;1.70;;;6.00;99.30;;;9.12;52.96;98641.34;5044132;28;20045;-47
2023/01/04 04:23:42;;;;;;;2.67;1.90;;;6.10;99.30;;;9.11;52.97;98637.00;5044106;28;20049;-48
2023/01/04 04:26:10;;;;;;;2.20;1.50;;;6.00;98.00;;;9.13;52.66;98637.72;5044916;28;20049;-47
2023/01/04 04:28:38;;;;;;;2.17;1.70;;;6.00;98.10;;;9.12;52.55;98628.06;5044347;28;20049;-48
2023/01/04 04:31:06;;;;;;;3.20;2.23;;;6.00;97.70;;;9.16;52.63;98626.81;5044330;28;20045;-47
2023/01/04 04:33:34;;;;;;;3.30;1.50;;;6.00;97.70;;;9.17;52.67;98617.88;5043541;28;20041;-50
2023/01/04 04:36:02;;;;;;;2.13;1.67;;;6.10;97.60;;;9.20;52.44;98619.44;5044183;28;20059;-49
2023/01/04 04:38:30;;;;;;;4.30;1.70;;;6.10;96.60;;;9.14;52.41;98620.78;5043824;28;20276;-49
2023/01/04 04:43:44;;;;;;;3.07;1.57;;;6.00;97.00;;;9.18;52.43;98608.09;5044097;28;20053;-48
2023/01/04 04:46:13;;;;;;;3.77;1.67;;;6.00;97.30;;;9.21;52.39;98605.19;5043786;28;20051;-48
2023/01/04 04:48:40;;;;;;;1.70;1.43;;;6.00;97.70;;;9.16;52.45;98604.72;5044105;28;20110;-47
2023/01/04 04:51:08;;;;;;;2.63;1.50;;;6.00;97.10;;;9.20;52.18;98601.69;5044092;28;20056;-48
2023/01/04 04:53:36;;;;;;;2.33;1.40;;;6.00;96.90;;;9.21;52.21;98591.91;5043535;28;20052;-47
2023/01/04 04:56:05;;;;;;;2.23;1.30;;;6.00;96.90;;;9.21;52.31;98591.91;5044046;28;20049;-48
2023/01/04 04:58:34;;;;;;;3.00;1.40;;;6.00;97.00;;;9.24;52.02;98597.78;5043672;28;20049;-49
2023/01/04 05:01:02;;;;;;;2.90;1.70;;;6.10;96.40;;;9.23;52.19;98590.81;5044265;28;20045;-46
2023/01/04 05:03:31;;;;;;;3.47;1.40;;;6.00;96.50;;;9.26;52.01;98589.69;5041462;28;20049;-46
2023/01/04 05:05:59;;;;;;;2.97;1.70;;;6.00;96.50;;;9.24;52.07;98596.94;5035684;28;20047;-51
2023/01/04 05:08:28;;;;;;;2.30;1.43;;;6.00;95.80;;;9.24;52.06;98603.09;5043568;28;20352;-47
2023/01/04 05:10:56;;;;;;;3.43;1.70;;;6.00;95.90;;;9.21;52.20;98594.56;5043498;28;20048;-51
2023/01/04 05:13:24;;;;;;;3.23;1.90;;;6.00;96.70;;;9.23;52.19;98595.28;5043515;28;20045;-48
2023/01/04 05:15:54;;;;;;;2.13;1.23;;;6.00;96.90;;;9.30;52.25;98588.44;5042188;28;20041;-49
2023/01/04 05:18:22;;;;;;;3.30;1.50;;;6.10;95.90;;;9.30;52.14;98592.94;5044023;28;20045;-48
2023/01/04 05:20:50;;;;;;;3.47;1.53;;;6.10;96.00;;;9.29;51.95;98591.25;5043225;28;20370;-49
2023/01/04 05:23:19;;;;;;;2.47;1.77;;;6.10;95.90;;;9.28;52.08;98590.41;5043398;28;20049;-52
2023/01/04 05:25:58;;;;;;;3.20;1.30;;;6.10;96.00;;;9.31;51.79;98590.16;5041845;28;20128;-49
2023/01/04 05:28:26;;;;;;;2.33;1.27;;;6.10;95.90;;;9.33;51.68;98592.69;5042053;28;20148;-52
2023/01/04 05:30:54;;;;;;;2.17;1.30;;;6.20;95.90;;;9.34;52.00;98595.19;5043165;28;20073;-50
2023/01/04 05:33:31;;;;;;;2.60;1.50;;;6.20;95.20;;;9.35;51.91;98598.72;5042953;28;20041;-49
2023/01/04 05:36:02;;;;;;;1.37;1.27;;;6.20;95.10;;;9.38;51.77;98593.13;5042032;28;20045;-49
2023/01/04 05:38:30;;;;;;;1.80;1.20;;;6.20;95.50;;;9.40;51.63;98600.00;5043316;28;20041;-49
2023/01/04 05:40:58;;;;;;;2.20;1.30;;;6.20;95.00;;;9.44;51.80;98592.59;5042921;28;20048;-49
2023/01/04 05:43:26;;;;;;;2.60;1.60;;;6.30;95.10;;;9.48;51.68;98595.84;5042662;28;20042;-52
2023/01/04 05:45:55;;;;;;;2.73;1.20;;;6.30;95.00;;;9.52;51.79;98586.63;5042619;28;20052;-48
2023/01/04 05:48:24;;;;;;;2.97;1.33;;;6.30;95.50;;;9.52;51.77;98587.50;5025604;28;20051;-51
2023/01/04 05:50:52;;;;;;;2.27;1.80;;;6.40;93.90;;;9.56;51.59;98583.59;5042567;28;20269;-47
2023/01/04 05:53:20;;;;;;;1.87;1.30;;;6.40;94.10;;;9.59;51.42;98588.63;5042774;28;20037;-48
2023/01/04 05:55:48;;;;;;;1.53;1.20;;;6.40;93.70;;;9.64;51.41;98588.25;5042260;28;20047;-48
2023/01/04 05:58:15;;;;;;;2.03;1.20;;;6.50;93.30;;;9.62;51.45;98582.22;5042755;28;20067;-50
2023/01/04 06:00:43;;;;;;;2.47;1.20;;;6.50;93.20;;;9.64;51.58;98589.09;5042505;28;20047;-50
2023/01/04 06:03:11;;;;;;;1.93;1.10;;;6.50;93.00;;;9.69;51.50;98582.53;5042590;28;20388;-49
2023/01/04 06:05:39;;;;;;;3.03;1.30;;;6.50;92.70;;;9.70;51.56;98578.91;5042269;28;20236;-49
2023/01/04 06:08:07;;;;;;;1.10;1.00;;;6.50;93.10;;;9.74;51.50;98582.97;5041452;28;20111;-51
2023/01/04 06:10:35;;;;;;;1.70;1.10;;;6.50;93.30;;;9.77;51.48;98572.06;5042341;28;20344;-49
2023/01/04 06:13:04;;;;;;;1.17;0.93;;;6.60;92.50;;;9.77;51.30;98577.38;5033263;28;20037;-52
2023/01/04 06:15:32;;;;;;;2.97;1.23;;;6.60;92.40;;;9.78;51.33;98571.94;5041395;28;20041;-47
2023/01/04 06:18:06;;;;;;;1.10;1.00;;;6.50;92.20;;;9.78;51.37;98566.59;5035000;28;20072;-52
2023/01/04 06:20:41;;;;;;;;;;;6.60;92.50;;;9.79;51.33;98568.31;5042821;28;20045;-51
2023/01/04 06:23:09;;;;;;;4.73;1.17;;;6.60;91.80;;;9.84;50.95;98574.03;5042221;28;19924;-48
2023/01/04 06:25:37;;;;;;;2.13;1.10;;;6.50;93.00;;;9.84;50.99;98571.38;5041866;28;20244;-49
2023/01/04 06:28:05;;;;;;;3.60;1.87;;;6.60;92.70;;;9.85;51.16;98565.09;5042254;28;20042;-52
2023/01/04 06:30:34;;;;;;;4.90;2.20;;;6.60;92.20;;;9.85;51.28;98565.09;5042157;28;20055;-51
2023/01/04 06:33:02;;;;;;;4.83;2.10;;;6.60;92.00;;;9.86;51.13;98568.59;5042009;28;20252;-51
2023/01/04 06:35:30;;;;;;;3.77;1.23;;;6.60;92.60;;;9.90;51.50;98564.69;5041689;28;20041;-52
2023/01/04 06:37:57;;;;;;;7.60;4.83;;;6.70;92.10;;;9.92;51.12;98569.88;5041825;28;20077;-48
2023/01/04 06:40:27;;;;;;;3.23;1.83;;;6.70;91.80;;;9.96;51.32;98564.16;5041597;28;20048;-53
2023/01/04 06:42:55;;;;;;;1.93;1.20;;;6.80;91.40;;;9.99;51.20;98560.41;5041684;28;20050;-51
2023/01/04 06:45:23;;;;;;;1.93;1.20;;;6.80;91.50;;;10.02;51.13;98574.28;5041568;28;20052;-50
2023/01/04 06:47:51;;;;;;;2.93;2.00;;;6.80;91.50;;;10.02;51.02;98560.97;5040897;28;20242;-48
2023/01/04 06:50:18;;;;;;;3.73;1.97;;;6.90;91.50;;;10.06;51.18;98556.19;5041610;28;20037;-50
2023/01/04 06:52:46;;;;;;;4.83;2.90;;;7.00;90.20;;;10.05;51.12;98559.84;5041464;28;20262;-50
2023/01/04 06:55:14;;;;;;;3.00;2.20;;;6.90;90.30;;;10.07;50.91;98557.91;5041357;28;20063;-51
2023/01/04 06:57:42;;;;;;;9.27;3.30;;;6.90;89.70;;;10.01;51.20;98558.44;5042035;28;20050;-51
2023/01/04 07:00:11;;;;;;;16.13;7.60;;;6.90;90.40;;;10.03;50.95;98552.00;5041737;28;20045;-49
2023/01/04 07:02:38;;;;;;;6.73;4.00;;;6.90;90.40;;;10.07;50.68;98557.06;5041775;28;20037;-48
2023/01/04 07:05:26;;;;;;;36.50;18.03;;;6.90;90.60;;;10.09;51.03;98557.75;5040363;28;20079;-51
2023/01/04 07:07:54;;;;;;;59.93;26.87;;;6.90;90.40;;;10.14;50.92;98558.19;5041642;28;20037;-50
2023/01/04 07:10:22;;;;;;;6.20;2.73;;;7.00;90.10;;;10.14;50.80;98563.50;5042149;28;20056;-51
2023/01/04 07:12:50;;;;;;;1.43;1.10;;;7.00;90.00;;;10.11;51.31;98571.78;5041301;28;20042;-48
2023/01/04 07:15:18;;;;;;;5.10;1.70;;;7.00;89.30;;;10.07;51.18;98567.69;5037595;28;20243;-50
2023/01/04 07:18:08;;;;;;;2.53;0.97;;;7.00;90.20;;;10.17;51.04;98565.91;5034196;28;20235;-51
2023/01/04 07:20:37;;;;;;;9.77;2.80;;;7.10;90.60;;;10.19;51.39;98569.25;5041519;28;20369;-52
2023/01/04 07:23:07;;;;;;;1.20;0.90;;;7.10;91.10;;;10.22;51.60;98561.03;5033165;28;20037;-50
2023/01/04 07:25:35;;;;;;;1.43;0.90;;;7.20;91.20;;;10.24;51.75;98565.22;5041790;28;20045;-53
2023/01/04 07:28:04;;;;;;;2.40;1.13;;;7.20;92.50;;;10.27;51.54;98550.78;5044918;28;20044;-48
2023/01/04 07:30:31;;;;;;;2.17;1.83;;;7.20;93.20;;;10.30;51.88;98553.22;5043099;28;20033;-49
2023/01/04 07:32:59;;;;;;;2.13;1.10;;;7.10;93.80;;;10.32;51.59;98547.78;5044950;28;20287;-48
2023/01/04 07:35:27;;;;;;;1.43;1.00;;;7.10;94.60;;;10.33;51.93;98550.28;5044830;28;20047;-53
2023/01/04 07:37:55;;;;;;;2.63;1.10;;;7.20;94.70;;;10.31;52.07;98544.25;5045228;28;20370;-52
2023/01/04 07:40:26;;;;;;;2.67;1.40;;;7.10;95.20;;;10.33;51.74;98544.97;5045277;28;20049;-53
2023/01/04 07:42:57;;;;;;;2.90;1.40;;;7.10;95.60;;;10.33;52.09;98541.44;5045010;28;20229;-52
2023/01/04 07:45:25;;;;;;;2.57;1.30;;;7.10;95.90;;;10.36;52.16;98546.50;5044225;28;20045;-52
2023/01/04 07:47:53;;;;;;;2.40;1.20;;;7.10;96.40;;;10.36;52.09;98544.69;5044869;28;20059;-53
2023/01/04 07:50:21;;;;;;;1.40;1.07;;;7.10;96.40;;;10.40;51.95;98537.25;5044800;28;20040;-52
2023/01/04 07:52:49;;;;;;;1.13;0.90;;;7.10;96.70;;;10.41;52.37;98538.94;5044670;28;20045;-50
2023/01/04 07:55:16;;;;;;;2.83;1.03;;;7.20;96.90;;;10.42;52.11;98528.16;5044772;28;20045;-51
2023/01/04 07:57:44;;;;;;;3.53;1.30;;;7.10;96.90;;;10.41;52.34;98531.81;5044963;28;20045;-51
2023/01/04 08:00:12;;;;;;;1.03;0.90;;;7.20;97.00;;;10.42;52.04;98522.81;5044811;28;20048;-49
2023/01/04 08:02:40;;;;;;;1.30;1.10;;;7.20;97.00;;;10.44;52.55;98518.19;5044576;28;20041;-53
2023/01/04 08:05:09;;;;;;;1.83;1.10;;;7.20;97.00;;;10.46;52.37;98509.25;5036460;28;20048;-48
2023/01/04 08:07:37;;;;;;;1.80;1.43;;;7.20;97.00;;;10.43;52.44;98507.72;5044629;28;20049;-49
2023/01/04 08:10:05;;;;;;;3.60;2.13;;;7.20;97.10;;;10.44;52.02;98507.56;5043330;28;20092;-51
2023/01/04 08:12:33;;;;;;;3.73;1.63;;;7.10;97.40;;;10.43;52.05;98505.06;5044281;28;20095;-49
2023/01/04 08:15:01;;;;;;;1.80;1.03;;;7.10;97.50;;;10.46;52.35;98506.59;5044192;28;20348;-50
2023/01/04 08:17:29;;;;;;;1.80;1.23;;;7.20;97.50;;;10.48;52.36;98505.47;5044530;28;20068;-49
2023/01/04 08:19:56;;;;;;;5.50;1.67;;;7.20;96.90;;;10.53;52.09;98507.72;5044166;28;20059;-48
2023/01/04 08:22:24;;;;;;;2.40;0.80;;;7.30;96.70;;;10.53;52.31;98505.91;5044116;28;20221;-51
2023/01/04 08:24:52;;;;;;;2.03;1.20;;;7.30;96.30;;;10.58;52.15;98510.78;5043887;28;20041;-50
2023/01/04 08:27:20;;;;;;;1.60;1.00;;;7.30;96.10;;;10.60;51.59;98514.16;5043864;28;20049;-49
2023/01/04 08:29:47;;;;;;;2.00;1.10;;;7.30;94.80;;;10.58;51.83;98506.28;5044139;28;20364;-51
2023/01/04 08:32:15;;;;;;;1.13;0.67;;;7.40;94.20;;;10.63;51.77;98516.53;5044163;28;20070;-53
2023/01/04 08:34:43;;;;;;;1.10;0.80;;;7.40;94.50;;;10.66;51.50;98510.91;5043756;28;20045;-54
2023/01/04 08:37:11;;;;;;;0.97;0.90;;;7.40;93.10;;;10.64;51.51;98505.75;5043004;28;20224;-48
2023/01/04 08:39:39;;;;;;;1.43;0.80;;;7.40;92.40;;;10.65;51.50;98503.94;5044198;28;20041;-50
2023/01/04 08:42:14;;;;;;;2.80;1.07;;;7.50;92.30;;;10.64;51.01;98486.25;5036606;28;20043;-50
2023/01/04 08:44:51;;;;;;;1.93;0.97;;;7.40;92.30;;;10.66;51.23;98484.28;5042815;28;20071;-52
2023/01/04 08:47:27;;;;;;;0.80;0.80;;;7.50;92.00;;;10.68;51.02;98484.97;5044144;28;20048;-51
2023/01/04 08:49:55;;;;;;;1.20;0.77;;;7.50;91.40;;;10.66;51.01;98473.63;5044080;28;20049;-51
2023/01/04 08:52:24;;;;;;;1.03;0.73;;;7.50;91.00;;;10.70;50.95;98471.53;5042807;28;20248;-49
2023/01/04 08:54:52;;;;;;;1.17;0.70;;;7.50;91.50;;;10.69;50.94;98475.19;5043484;28;20037;-52
2023/01/04 08:57:20;;;;;;;2.93;0.93;;;7.50;91.50;;;10.74;51.17;98475.59;5044210;28;20049;-51
2023/01/04 08:59:48;;;;;;;1.63;0.67;;;7.50;91.40;;;10.74;50.99;98471.13;5043743;28;20048;-52
2023/01/04 09:02:23;;;;;;;0.97;0.83;;;7.50;89.40;;;10.74;50.67;98479.13;5043712;28;20049;-48
2023/01/04 09:04:51;;;;;;;1.17;0.90;;;7.60;90.10;;;10.74;50.71;98471.13;5043466;28;20041;-50
2023/01/04 09:07:19;;;;;;;1.30;0.90;;;7.60;89.60;;;10.79;50.75;98476.03;5043663;28;20052;-48
2023/01/04 09:09:46;;;;;;;2.33;1.00;;;7.60;89.20;;;10.83;50.55;98480.91;5043668;28;20041;-49
2023/01/04 09:12:14;;;;;;;1.53;1.00;;;7.70;89.20;;;10.89;50.43;98482.16;5043486;28;20051;-49
2023/01/04 09:14:42;;;;;;;1.70;0.80;;;7.70;89.10;;;10.94;50.54;98479.09;5043763;28;20046;-49
2023/01/04 09:17:10;;;;;;;1.20;0.63;;;7.80;88.60;;;10.95;50.43;98489.59;5043860;28;20043;-51
2023/01/04 09:19:38;;;;;;;2.33;0.90;;;7.80;87.80;;;11.00;50.66;98481.19;5042464;28;20255;-52
2023/01/04 09:22:06;;;;;;;2.00;1.17;;;7.90;88.70;;;11.08;50.78;98486.63;5042256;28;20049;-53
2023/01/04 09:24:34;;;;;;;34.60;13.90;;;8.00;88.40;;;11.15;50.43;98478.91;5043116;28;20255;-49
2023/01/04 09:27:03;;;;;;;39.53;17.27;;;8.00;88.00;;;11.17;50.63;98475.09;5043329;28;20478;-53
2023/01/04 09:29:31;;;;;;;4.93;2.73;;;8.00;87.50;;;11.17;50.24;98464.44;5043274;28;20037;-49
2023/01/04 09:31:59;;;;;;;3.50;2.67;;;8.10;87.50;;;11.25;50.15;98469.03;5043153;28;20049;-53
2023/01/04 09:34:27;;;;;;;2.90;1.50;;;8.10;87.90;;;11.29;50.30;98462.44;5042934;28;20348;-51
2023/01/04 09:36:54;;;;;;;1.80;0.83;;;8.20;87.50;;;11.30;50.33;98458.81;5042962;28;20063;-48
2023/01/04 09:39:25;;;;;;;1.90;1.23;;;8.20;86.60;;;11.32;50.35;98471.97;5043292;28;20366;-52
2023/01/04 09:42:04;;;;;;;4.77;1.10;;;8.30;86.60;;;11.32;50.17;98471.97;5041484;28;20080;-50
2023/01/04 09:44:46;;;;;;;1.37;1.07;;;8.30;86.10;;;11.36;50.24;98466.22;5041791;28;20356;-48
2023/01/04 09:47:56;;;;;;;3.00;1.37;;;8.30;85.40;;;11.38;50.47;98471.38;5036539;28;20050;-51
2023/01/04 09:51:01;;;;;;;3.90;0.90;;;8.30;85.90;;;11.40;50.20;98464.09;5041895;28;20067;-50
2023/01/04 09:53:54;;;;;;;1.33;0.82;;;8.40;84.90;;;11.39;50.24;98465.06;5035532;28;20239;-51
2023/01/04 09:56:33;;;;;;;3.83;0.77;;;8.40;84.80;;;11.40;50.11;98464.94;5035036;28;20047;-49
2023/01/04 09:59:11;;;;;;;1.97;0.80;;;8.40;85.00;;;11.39;49.63;98449.06;5041740;28;20049;-50
2023/01/04 10:02:00;;;;;;;0.90;0.70;;;8.40;85.10;;;11.41;50.22;98452.44;5041726;28;20336;-54
2023/01/04 10:04:49;;;;;;;2.40;1.10;;;8.40;85.30;;;11.42;50.26;98451.44;5035253;28;20037;-53
2023/01/04 10:07:30;;;;;;;1.20;0.87;;;8.40;84.70;;;11.50;50.36;98450.72;5041073;28;20049;-50
2023/01/04 10:09:59;;;;;;;3.50;1.47;;;8.50;85.30;;;11.56;50.03;98445.63;5040985;28;20057;-50
2023/01/04 10:12:55;;;;;;;2.10;1.13;;;8.50;85.60;;;11.58;50.12;98424.16;5041391;28;20255;-52
2023/01/04 10:15:39;;;;;;;0.80;0.70;;;8.50;85.00;;;11.65;50.00;98435.03;5033134;28;20360;-52
2023/01/04 10:18:16;;;;;;;0.70;0.43;;;8.60;84.80;;;11.71;50.03;98421.09;5042528;28;20053;-49
2023/01/04 10:21:34;;;;;;;1.50;0.80;;;8.60;84.30;;;11.70;49.87;98425.63;5042354;28;20049;-48
2023/01/04 10:24:41;;;;;;;3.07;1.27;;;8.70;85.30;;;11.77;49.95;98420.53;5041921;28;20053;-50
2023/01/04 10:27:55;;;;;;;3.23;1.20;;;8.70;85.20;;;11.78;49.93;98425.69;5042392;28;20053;-53
2023/01/04 10:30:43;;;;;;;2.93;1.17;;;8.80;84.80;;;11.89;49.84;98421.16;5035295;28;20046;-49
2023/01/04 10:33:33;;;;;;;1.50;1.03;;;8.80;84.50;;;11.94;49.54;98418.88;5041953;28;20047;-51
2023/01/04 10:36:01;;;;;;;2.40;1.53;;;8.90;84.60;;;11.96;50.07;98420.44;5041424;28;20048;-53
2023/01/04 10:38:38;;;;;;;2.30;1.47;;;9.00;84.60;;;12.00;49.44;98410.31;5041190;28;20051;-52
2023/01/04 10:41:12;;;;;;;4.37;1.90;;;9.00;84.50;;;12.10;49.57;98410.22;5042079;28;20278;-50
2023/01/04 10:44:07;;;;;;;4.78;2.55;;;9.00;83.60;;;11.99;49.90;98395.28;5040706;28;20049;-53
2023/01/04 10:47:33;;;;;;;1.37;1.03;;;9.10;83.30;;;12.04;49.92;98401.00;5035990;28;20252;-49
2023/01/04 10:50:52;;;;;;;6.00;3.47;;;9.10;83.50;;;12.09;49.69;98390.69;5038919;28;20073;-48
2023/01/04 10:53:25;;;;;;;1.67;1.43;;;9.20;83.20;;;12.14;49.81;98398.25;5034405;28;20063;-49
2023/01/04 10:56:12;;;;;;;3.47;1.17;;;9.20;83.80;;;12.23;49.77;98388.47;5042099;28;20037;-51
2023/01/04 10:59:17;;;;;;;1.90;1.17;;;9.20;83.70;;;12.26;49.37;98388.19;5041589;28;20041;-51
2023/01/04 11:02:00;;;;;;;3.07;0.80;;;9.20;83.40;;;12.24;49.54;98388.34;5045595;28;20045;-52
2023/01/04 11:04:35;;;;;;;2.37;0.93;;;9.20;84.10;;;12.31;49.58;98389.41;5039285;28;20053;-51
2023/01/04 11:07:34;;;;;;;1.50;0.80;;;9.30;83.30;;;12.32;49.86;98393.72;5044728;28;20292;-54
2023/01/04 11:10:12;;;;;;;4.57;1.00;;;9.30;83.50;;;12.27;49.43;98385.38;5045626;28;20041;-51
2023/01/04 11:12:40;;;;;;;2.50;1.10;;;9.30;83.70;;;12.30;49.76;98377.03;5044765;28;20045;-52
2023/01/04 11:15:09;;;;;;;1.80;1.20;;;9.30;83.60;;;12.29;49.56;98375.38;5045455;28;20046;-49
2023/01/04 11:17:38;;;;;;;1.97;1.27;;;9.30;83.80;;;12.31;50.05;98369.84;5045853;28;20248;-52
2023/01/04 11:20:06;;;;;;;2.17;1.40;;;9.30;83.80;;;12.33;49.94;98374.06;5044191;28;20076;-50
2023/01/04 11:22:52;;;;;;;2.60;1.57;;;9.30;83.60;;;12.34;49.68;98370.38;5045362;28;20071;-50
2023/01/04 11:25:22;;;;;;;4.90;1.90;;;9.30;85.00;;;12.39;49.82;98369.94;5036719;28;20045;-50
2023/01/04 11:28:28;;;;;;;1.80;1.20;;;9.30;84.40;;;12.43;49.78;98368.63;5045626;28;20258;-50
2023/01/04 11:31:04;;;;;;;3.55;2.25;;;9.30;84.60;;;12.41;49.75;98368.78;5045510;28;20335;-53
2023/01/04 11:34:00;;;;;;;6.00;1.57;;;9.30;84.30;;;12.31;50.11;98362.69;5045220;28;20051;-55
2023/01/04 11:36:45;;;;;;;3.57;1.57;;;9.30;84.60;;;12.42;49.81;98364.28;5038732;28;20244;-52
2023/01/04 11:39:44;;;;;;;1.20;0.90;;;9.30;84.60;;;12.37;49.81;98354.06;5045246;28;20053;-51
2023/01/04 11:42:20;;;;;;;2.00;1.03;;;9.40;84.50;;;12.40;50.06;98348.41;5036572;28;20053;-48
2023/01/04 11:45:00;;;;;;;1.23;1.00;;;9.30;84.90;;;12.44;49.85;98345.44;5043945;28;20358;-52
2023/01/04 11:47:45;;;;;;;1.93;1.10;;;9.40;84.70;;;12.43;50.02;98349.94;5038624;28;20045;-53